Time;durP1;ratioP1;P1;durP2;ratioP2;P2;SDS_P1;SDS_P2;PMS_P1;PMS_P2;Temp;Humidity;BMP_temperature;BMP_pressure;BME280_temperature;BME280_humidity;BME280_pressure;Samples;Min_cycle;Max_cycle;Signal;HPM_P1;HPM_P2
2022/05/26 00:01:22;;;;;;;1.73;1.30;;;17.10;99.90;;;;;;5021954;28;20191;-74
2022/05/26 00:03:50;;;;;;;0.90;0.90;;;17.10;99.90;;;;;;5019632;28;20220;-75
2022/05/26 00:06:19;;;;;;;1.00;1.00;;;17.00;99.90;;;;;;5021580;28;20200;-74
2022/05/26 00:08:46;;;;;;;1.10;1.10;;;17.00;99.90;;;;;;5019083;28;20633;-74
2022/05/26 00:11:16;;;;;;;0.90;0.90;;;17.00;99.90;;;;;;5021476;28;20224;-75
2022/05/26 00:13:44;;;;;;;1.05;1.05;;;17.00;99.90;;;;;;5020286;28;20212;-74
2022/05/26 00:16:12;;;;;;;1.00;1.00;;;16.90;99.90;;;;;;5021199;28;20203;-74
2022/05/26 00:18:42;;;;;;;1.77;1.13;;;16.90;99.90;;;;;;5031019;28;20288;-75
2022/05/26 00:21:09;;;;;;;0.85;0.85;;;16.90;99.90;;;;;;5020548;28;20187;-74
2022/05/26 00:23:36;;;;;;;1.00;1.00;;;16.90;99.90;;;;;;5019089;28;20923;-74
2022/05/26 00:26:03;;;;;;;1.00;1.00;;;16.90;99.90;;;;;;5021954;28;20674;-75
2022/05/26 00:28:31;;;;;;;1.08;1.08;;;16.90;99.90;;;;;;5018913;28;20216;-74
2022/05/26 00:30:58;;;;;;;1.00;1.00;;;16.90;99.90;;;;;;5021652;28;20208;-74
2022/05/26 00:33:25;;;;;;;1.15;1.05;;;16.90;99.90;;;;;;5027690;28;20266;-75
2022/05/26 00:35:54;;;;;;;0.98;0.98;;;16.90;99.90;;;;;;5023357;28;20202;-75
2022/05/26 00:38:21;;;;;;;1.20;1.20;;;16.90;99.90;;;;;;5017898;28;20219;-74
2022/05/26 00:40:48;;;;;;;1.00;1.00;;;16.90;99.90;;;;;;5021423;28;20220;-74
2022/05/26 00:43:15;;;;;;;1.23;1.15;;;16.90;99.90;;;;;;5017785;28;20278;-74
2022/05/26 00:45:52;;;;;;;1.30;1.20;;;17.00;99.90;;;;;;5020821;28;20211;-74
2022/05/26 00:48:24;;;;;;;1.35;1.35;;;16.90;99.90;;;;;;5029142;28;20870;-74
2022/05/26 00:50:55;;;;;;;0.90;0.90;;;16.90;99.90;;;;;;5022237;28;20400;-75
2022/05/26 00:53:27;;;;;;;1.00;1.00;;;16.90;99.90;;;;;;5018008;28;20223;-75
2022/05/26 00:55:58;;;;;;;1.00;1.00;;;16.90;99.90;;;;;;5018682;28;20195;-75
2022/05/26 00:58:30;;;;;;;1.10;1.10;;;16.90;99.90;;;;;;5017562;28;20227;-75
2022/05/26 01:01:00;;;;;;;1.05;1.05;;;16.90;99.90;;;;;;5018352;28;20465;-75
2022/05/26 01:03:32;;;;;;;1.10;1.10;;;16.90;99.90;;;;;;5021541;28;20222;-74
2022/05/26 01:06:05;;;;;;;1.42;1.33;;;16.90;99.90;;;;;;5017022;28;20673;-74
2022/05/26 01:08:37;;;;;;;1.17;1.17;;;16.90;99.90;;;;;;5020972;28;20493;-74
2022/05/26 01:11:04;;;;;;;1.38;1.17;;;16.90;99.90;;;;;;5018513;28;20294;-74
2022/05/26 01:13:32;;;;;;;1.27;1.20;;;16.90;99.90;;;;;;5021893;28;20223;-74
2022/05/26 01:16:08;;;;;;;1.30;1.30;;;16.90;99.90;;;;;;5019341;28;20202;-74
2022/05/26 01:18:48;;;;;;;1.17;1.08;;;16.80;99.90;;;;;;5037419;28;20223;-74
2022/05/26 01:21:21;;;;;;;1.30;1.20;;;16.80;99.90;;;;;;5020052;28;20609;-74
2022/05/26 01:24:14;;;;;;;1.58;1.20;;;16.70;99.90;;;;;;5020089;28;20578;-74
2022/05/26 01:27:00;;;;;;;1.00;1.00;;;16.70;99.90;;;;;;5019691;28;20192;-75
2022/05/26 01:30:06;;;;;;;1.10;1.10;;;16.60;99.90;;;;;;5004330;28;20494;-74
2022/05/26 01:32:48;;;;;;;1.10;1.10;;;16.60;99.90;;;;;;5018056;28;20339;-74
2022/05/26 01:35:21;;;;;;;1.00;1.00;;;16.60;99.90;;;;;;5019340;28;20618;-74
2022/05/26 01:38:03;;;;;;;1.20;1.20;;;16.50;99.90;;;;;;5019184;28;20632;-74
2022/05/26 01:40:37;;;;;;;1.50;1.40;;;16.50;99.90;;;;;;5018095;28;20476;-74
2022/05/26 01:43:10;;;;;;;1.65;1.55;;;16.50;99.90;;;;;;5018085;28;20255;-74
2022/05/26 01:45:43;;;;;;;2.00;1.35;;;16.40;99.90;;;;;;5018960;28;20384;-75
2022/05/26 01:48:16;;;;;;;1.10;1.10;;;16.30;99.90;;;;;;5023090;28;20305;-75
2022/05/26 01:50:47;;;;;;;1.30;1.30;;;16.30;99.90;;;;;;5019809;28;20266;-74
2022/05/26 01:53:34;;;;;;;1.10;1.10;;;16.30;99.90;;;;;;5018386;28;20235;-74
2022/05/26 01:56:10;;;;;;;1.30;1.20;;;16.30;99.90;;;;;;5017981;28;20698;-74
2022/05/26 01:58:40;;;;;;;1.77;1.10;;;16.30;99.90;;;;;;5051191;22;20252;-76
2022/05/26 02:01:11;;;;;;;1.20;1.10;;;16.30;99.90;;;;;;5077124;28;20239;-74
2022/05/26 02:03:42;;;;;;;1.85;1.15;;;16.40;99.90;;;;;;5082670;28;20221;-75
2022/05/26 02:06:17;;;;;;;1.00;1.00;;;16.30;99.90;;;;;;5080646;28;20190;-77
2022/05/26 02:08:48;;;;;;;1.23;1.20;;;16.40;99.90;;;;;;5081463;28;20212;-74
2022/05/26 02:11:17;;;;;;;1.40;1.30;;;16.30;99.90;;;;;;5080296;28;20245;-75
2022/05/26 02:13:50;;;;;;;1.08;1.08;;;16.30;99.90;;;;;;5077340;28;20217;-77
2022/05/26 02:16:21;;;;;;;1.10;1.10;;;16.30;99.90;;;;;;5083336;28;20202;-77
2022/05/26 02:18:55;;;;;;;1.00;1.00;;;16.30;99.90;;;;;;5080302;28;20778;-77
2022/05/26 02:21:34;;;;;;;1.02;1.02;;;16.30;99.90;;;;;;5084010;28;20197;-77
2022/05/26 02:24:06;;;;;;;1.30;1.20;;;16.20;99.90;;;;;;5077417;28;20213;-75
2022/05/26 02:26:36;;;;;;;1.30;1.30;;;16.30;99.90;;;;;;5081061;28;20198;-77
2022/05/26 02:31:49;;;;;;;1.23;1.23;;;16.20;99.90;;;;;;5086832;28;20358;-78
2022/05/26 02:34:19;;;;;;;1.30;1.30;;;16.10;99.90;;;;;;5078126;28;20231;-77
2022/05/26 02:36:47;;;;;;;1.20;1.00;;;16.10;99.90;;;;;;5078965;28;20210;-75
2022/05/26 02:39:14;;;;;;;1.02;1.02;;;16.10;99.90;;;;;;5084606;28;20217;-75
2022/05/26 02:41:42;;;;;;;1.10;1.10;;;16.10;99.90;;;;;;5082709;28;20663;-77
2022/05/26 02:44:10;;;;;;;1.10;1.10;;;16.20;99.90;;;;;;5079227;28;20216;-75
2022/05/26 02:46:53;;;;;;;1.20;1.20;;;16.10;99.90;;;;;;5079030;28;20281;-74
2022/05/26 02:49:57;;;;;;;1.30;1.30;;;16.10;99.90;;;;;;5086586;28;20728;-77
2022/05/26 02:52:41;;;;;;;1.05;1.05;;;16.10;99.90;;;;;;5081231;28;20679;-75
2022/05/26 02:55:18;;;;;;;1.20;1.20;;;16.00;99.90;;;;;;5080030;28;20304;-74
2022/05/26 02:57:58;;;;;;;1.10;1.10;;;16.00;99.90;;;;;;5079274;28;20198;-77
2022/05/26 03:00:30;;;;;;;1.10;1.10;;;16.10;99.90;;;;;;5064390;28;20226;-77
2022/05/26 03:03:03;;;;;;;1.20;1.20;;;16.00;99.90;;;;;;5062733;28;20273;-77
2022/05/26 03:05:36;;;;;;;1.50;1.40;;;16.00;99.90;;;;;;5058913;28;20515;-77
2022/05/26 03:08:07;;;;;;;1.13;1.13;;;16.00;99.90;;;;;;5063305;28;20198;-77
2022/05/26 03:10:34;;;;;;;1.10;1.10;;;15.90;99.90;;;;;;5060547;28;20236;-77
2022/05/26 03:13:01;;;;;;;1.25;1.25;;;15.90;99.90;;;;;;5064600;28;20215;-77
2022/05/26 03:15:30;;;;;;;2.47;1.40;;;15.90;99.90;;;;;;5064344;28;20734;-77
2022/05/26 03:17:57;;;;;;;1.30;1.20;;;15.80;99.90;;;;;;5064592;28;20204;-77
2022/05/26 03:20:24;;;;;;;1.65;1.08;;;15.90;99.90;;;;;;5059792;28;20218;-74
2022/05/26 03:22:55;;;;;;;1.10;1.10;;;15.90;99.90;;;;;;5065241;28;20277;-75
2022/05/26 03:25:22;;;;;;;1.20;1.20;;;15.90;99.90;;;;;;5058456;28;20860;-74
2022/05/26 03:27:49;;;;;;;1.23;1.23;;;15.90;99.90;;;;;;5060906;28;20248;-77
2022/05/26 03:30:16;;;;;;;1.10;1.10;;;15.90;99.90;;;;;;5061868;28;20222;-77
2022/05/26 03:32:45;;;;;;;1.38;1.30;;;15.90;99.90;;;;;;5059886;28;20636;-74
2022/05/26 03:40:53;;;;;;;1.05;1.05;;;15.90;99.90;;;;;;5077642;28;20275;-77
2022/05/26 03:43:21;;;;;;;1.05;1.05;;;15.90;99.90;;;;;;5090694;28;20225;-75
2022/05/26 03:45:49;;;;;;;1.55;1.45;;;15.90;99.90;;;;;;5082796;28;20222;-75
2022/05/26 03:48:16;;;;;;;1.42;1.30;;;15.90;99.90;;;;;;5081352;28;20224;-75
2022/05/26 03:50:43;;;;;;;1.30;1.20;;;15.80;99.90;;;;;;5079763;28;20728;-75
2022/05/26 03:53:11;;;;;;;1.10;1.10;;;15.80;99.90;;;;;;5076712;28;20225;-75
2022/05/26 03:55:40;;;;;;;1.00;1.00;;;15.70;99.90;;;;;;5081532;28;20267;-75
2022/05/26 03:58:07;;;;;;;1.10;1.10;;;15.70;99.90;;;;;;5078441;28;20228;-75
2022/05/26 04:00:35;;;;;;;1.20;1.20;;;15.70;99.90;;;;;;5082905;28;20258;-75
2022/05/26 04:03:02;;;;;;;1.30;1.20;;;15.70;99.90;;;;;;5078121;28;20393;-75
2022/05/26 04:05:29;;;;;;;1.10;1.10;;;15.60;99.90;;;;;;5077933;28;20259;-75
2022/05/26 04:07:57;;;;;;;1.15;1.15;;;15.60;99.90;;;;;;5085723;28;20189;-74
2022/05/26 04:10:26;;;;;;;1.55;1.45;;;15.50;99.90;;;;;;5083498;28;20222;-74
2022/05/26 04:12:55;;;;;;;1.17;1.17;;;15.50;99.90;;;;;;5077651;28;20210;-75
2022/05/26 04:15:24;;;;;;;1.10;1.10;;;15.60;99.90;;;;;;5081248;28;20221;-75
2022/05/26 04:17:51;;;;;;;1.27;1.17;;;15.60;99.90;;;;;;5085891;28;20652;-74
2022/05/26 04:20:22;;;;;;;1.10;1.10;;;15.70;99.90;;;;;;5078674;28;20229;-77
2022/05/26 04:22:49;;;;;;;1.05;1.05;;;15.80;99.90;;;;;;5082062;28;20223;-77
2022/05/26 04:25:18;;;;;;;0.95;0.95;;;15.90;99.90;;;;;;5079385;28;20232;-77
2022/05/26 04:27:47;;;;;;;0.95;0.95;;;16.00;99.90;;;;;;5079310;28;20198;-74
2022/05/26 04:30:14;;;;;;;1.20;1.20;;;16.10;99.90;;;;;;5086291;28;20226;-74
2022/05/26 04:32:42;;;;;;;1.17;1.17;;;16.10;99.90;;;;;;5079370;28;20218;-75
2022/05/26 04:35:10;;;;;;;1.30;1.30;;;16.20;99.90;;;;;;5082821;28;20899;-77
2022/05/26 04:37:38;;;;;;;0.80;0.80;;;16.30;99.90;;;;;;5082048;28;20622;-75
2022/05/26 04:40:08;;;;;;;0.90;0.90;;;16.40;99.90;;;;;;5086129;28;20580;-74
2022/05/26 04:42:35;;;;;;;1.20;1.10;;;16.50;99.90;;;;;;5079465;28;20194;-77
2022/05/26 04:45:04;;;;;;;1.00;1.00;;;16.50;99.90;;;;;;5080487;28;20637;-77
2022/05/26 04:47:31;;;;;;;1.23;1.23;;;16.60;99.90;;;;;;5078168;28;20224;-78
2022/05/26 04:49:58;;;;;;;1.20;1.20;;;16.70;99.90;;;;;;5082876;28;20225;-77
2022/05/26 04:52:26;;;;;;;1.45;1.35;;;16.80;99.90;;;;;;5088350;28;20209;-77
2022/05/26 04:54:53;;;;;;;0.95;0.95;;;16.80;99.90;;;;;;5082375;28;20763;-74
2022/05/26 04:57:22;;;;;;;1.25;1.00;;;17.00;99.90;;;;;;5083483;28;20255;-75
2022/05/26 04:59:50;;;;;;;1.30;1.30;;;17.10;99.90;;;;;;5084840;28;20228;-77
2022/05/26 05:02:21;;;;;;;1.25;1.15;;;17.20;99.90;;;;;;5090554;28;20199;-77
2022/05/26 05:04:49;;;;;;;2.08;1.50;;;17.30;99.90;;;;;;5084745;28;20217;-77
2022/05/26 05:07:17;;;;;;;1.83;1.48;;;17.30;99.90;;;;;;5084807;28;20201;-77
2022/05/26 05:09:45;;;;;;;1.65;1.55;;;17.30;99.90;;;;;;5083989;28;20600;-76
2022/05/26 05:12:14;;;;;;;1.95;1.38;;;17.30;99.90;;;;;;5082619;28;20233;-77
2022/05/26 05:14:44;;;;;;;3.42;1.55;;;17.30;99.90;;;;;;5084009;28;20225;-77
2022/05/26 05:17:11;;;;;;;1.40;1.30;;;17.20;99.90;;;;;;5085293;28;20214;-77
2022/05/26 05:19:40;;;;;;;1.30;1.30;;;17.30;99.90;;;;;;5081474;28;20226;-77
2022/05/26 05:22:12;;;;;;;1.90;1.73;;;17.30;99.90;;;;;;5081277;28;20195;-76
2022/05/26 05:24:42;;;;;;;1.42;1.33;;;17.40;99.90;;;;;;5083374;28;20218;-77
2022/05/26 05:27:16;;;;;;;1.70;1.60;;;17.50;99.90;;;;;;5086108;28;20194;-77
2022/05/26 05:29:45;;;;;;;1.30;1.30;;;17.50;99.90;;;;;;5088202;28;20225;-77
2022/05/26 05:32:18;;;;;;;1.48;1.38;;;17.50;99.90;;;;;;5080811;28;20226;-77
2022/05/26 05:34:51;;;;;;;1.52;1.17;;;17.70;99.90;;;;;;5082522;28;20221;-77
2022/05/26 05:37:18;;;;;;;8.48;1.67;;;17.70;99.90;;;;;;5086643;28;20660;-77
2022/05/26 05:39:45;;;;;;;1.60;1.40;;;17.90;99.90;;;;;;5078340;28;20222;-76
2022/05/26 05:42:12;;;;;;;1.70;1.60;;;18.00;99.90;;;;;;5084157;28;20202;-77
2022/05/26 05:44:40;;;;;;;2.17;1.60;;;18.00;99.90;;;;;;5078956;28;20214;-77
2022/05/26 05:47:08;;;;;;;1.13;1.10;;;18.10;99.90;;;;;;5086867;28;20198;-77
2022/05/26 05:49:35;;;;;;;1.63;1.52;;;18.20;99.90;;;;;;5081406;28;20222;-77
2022/05/26 05:52:10;;;;;;;1.50;1.40;;;18.30;99.90;;;;;;5082688;28;20308;-77
2022/05/26 05:54:38;;;;;;;2.17;1.52;;;18.30;99.90;;;;;;5082546;28;20267;-77
2022/05/26 05:57:06;;;;;;;1.33;1.33;;;18.30;99.90;;;;;;5087283;28;20196;-77
2022/05/26 05:59:34;;;;;;;1.38;1.30;;;18.40;99.90;;;;;;5084855;28;20229;-78
2022/05/26 06:02:01;;;;;;;1.42;1.33;;;18.60;99.90;;;;;;5083411;28;20197;-77
2022/05/26 06:04:28;;;;;;;1.50;1.40;;;18.60;99.90;;;;;;5083890;28;20213;-77
2022/05/26 06:06:55;;;;;;;2.28;1.30;;;18.50;99.90;;;;;;5081675;28;20198;-77
2022/05/26 06:09:23;;;;;;;1.52;1.30;;;18.50;99.90;;;;;;5083563;28;20234;-77
2022/05/26 06:11:51;;;;;;;1.30;1.30;;;18.50;99.90;;;;;;5081735;28;20246;-77
2022/05/26 06:14:18;;;;;;;2.65;1.38;;;18.80;99.90;;;;;;5081085;28;20213;-77
2022/05/26 06:16:46;;;;;;;1.88;1.50;;;19.00;99.90;;;;;;5082822;28;20194;-77
2022/05/26 06:19:14;;;;;;;1.90;1.70;;;19.00;99.90;;;;;;5085776;28;20229;-75
2022/05/26 06:21:41;;;;;;;1.50;1.40;;;19.10;99.90;;;;;;5088137;28;20689;-77
2022/05/26 06:24:10;;;;;;;1.80;1.42;;;19.30;99.90;;;;;;5079985;28;20213;-77
2022/05/26 06:26:38;;;;;;;3.72;1.48;;;19.40;99.90;;;;;;5081227;28;20192;-77
2022/05/26 06:37:28;;;;;;;1.85;1.42;;;19.80;99.90;;;;;;5079863;28;20561;-77
2022/05/26 06:39:55;;;;;;;1.55;1.25;;;19.90;99.90;;;;;;5079587;28;20294;-77
2022/05/26 06:42:24;;;;;;;1.92;1.40;;;19.90;99.90;;;;;;5084402;28;20274;-77
2022/05/26 06:44:52;;;;;;;1.33;1.17;;;20.00;99.90;;;;;;5081791;28;20296;-77
2022/05/26 06:47:22;;;;;;;1.00;1.00;;;20.00;99.90;;;;;;5082858;28;20189;-77
2022/05/26 06:49:50;;;;;;;1.27;1.17;;;20.10;99.90;;;;;;5082087;28;20230;-78
2022/05/26 06:52:22;;;;;;;1.40;1.30;;;20.30;99.90;;;;;;5083150;28;20631;-77
2022/05/26 06:54:49;;;;;;;1.20;1.17;;;20.20;99.90;;;;;;5080733;28;20236;-77
2022/05/26 06:57:17;;;;;;;1.30;1.20;;;20.20;99.90;;;;;;5082922;28;20662;-77
2022/05/26 06:59:45;;;;;;;1.88;1.30;;;20.30;99.90;;;;;;5079353;28;20236;-76
2022/05/26 07:02:14;;;;;;;3.35;1.85;;;20.30;99.90;;;;;;5081857;28;20204;-77
2022/05/26 07:04:43;;;;;;;1.75;1.50;;;20.30;99.90;;;;;;5081791;28;20392;-77
2022/05/26 07:07:12;;;;;;;1.55;1.40;;;20.30;99.90;;;;;;5083623;28;20193;-77
2022/05/26 07:09:39;;;;;;;1.60;1.50;;;20.30;99.90;;;;;;5079557;28;20655;-77
2022/05/26 07:12:07;;;;;;;3.05;1.40;;;20.30;99.90;;;;;;5082906;28;20205;-78
2022/05/26 07:14:34;;;;;;;1.40;1.30;;;20.50;99.90;;;;;;5087009;28;20277;-77
2022/05/26 07:17:03;;;;;;;1.55;1.42;;;20.60;99.90;;;;;;5082688;28;20683;-77
2022/05/26 07:19:34;;;;;;;2.33;1.30;;;20.70;99.90;;;;;;5076847;28;20257;-77
2022/05/26 07:22:01;;;;;;;1.65;1.30;;;20.70;99.90;;;;;;5082402;28;20194;-76
2022/05/26 07:24:28;;;;;;;1.48;1.38;;;20.80;99.90;;;;;;5081020;28;20230;-77
2022/05/26 07:26:55;;;;;;;1.48;1.38;;;20.80;99.90;;;;;;5082244;28;20220;-77
2022/05/26 07:29:22;;;;;;;1.77;1.40;;;20.80;99.90;;;;;;5078531;28;20233;-76
2022/05/26 07:31:49;;;;;;;1.58;1.23;;;20.80;99.90;;;;;;5081829;28;20198;-77
2022/05/26 07:34:18;;;;;;;2.45;1.60;;;21.20;99.90;;;;;;5081587;28;20218;-77
2022/05/26 07:42:19;;;;;;;1.30;1.20;;;21.50;99.90;;;;;;5079080;28;20204;-77
2022/05/26 07:44:49;;;;;;;1.25;1.15;;;21.60;99.90;;;;;;5077735;28;20253;-78
2022/05/26 07:47:17;;;;;;;2.30;1.23;;;21.70;99.90;;;;;;5083495;28;20203;-78
2022/05/26 07:49:47;;;;;;;2.25;1.50;;;21.90;99.90;;;;;;5082335;28;20225;-77
2022/05/26 07:52:15;;;;;;;1.48;1.38;;;22.20;99.90;;;;;;5078930;28;20288;-76
2022/05/26 07:54:44;;;;;;;1.58;1.40;;;22.40;99.90;;;;;;5081463;28;20334;-77
2022/05/26 07:57:18;;;;;;;1.58;1.38;;;22.50;99.90;;;;;;5079920;28;20202;-77
2022/05/26 07:59:45;;;;;;;1.45;1.35;;;22.70;99.90;;;;;;5098342;22;20591;-74
2022/05/26 08:02:12;;;;;;;1.35;1.25;;;22.70;99.90;;;;;;5074552;28;20199;-76
2022/05/26 08:04:40;;;;;;;2.53;1.33;;;22.60;99.90;;;;;;5063465;28;20248;-75
2022/05/26 08:07:08;;;;;;;1.80;1.27;;;22.50;99.90;;;;;;5065168;28;20194;-75
2022/05/26 08:09:37;;;;;;;1.70;1.30;;;22.60;99.90;;;;;;5065089;28;20218;-75
2022/05/26 08:12:06;;;;;;;2.00;1.20;;;22.90;99.90;;;;;;5065264;28;20198;-74
2022/05/26 08:14:33;;;;;;;1.63;1.30;;;23.00;99.90;;;;;;5063097;28;20326;-75
2022/05/26 08:17:02;;;;;;;1.55;1.42;;;23.10;99.90;;;;;;5066282;28;20276;-75
2022/05/26 08:19:29;;;;;;;2.25;1.38;;;23.10;99.90;;;;;;5064829;28;20285;-74
2022/05/26 08:21:56;;;;;;;1.38;1.10;;;23.10;99.90;;;;;;5063536;28;20190;-75
2022/05/26 08:24:25;;;;;;;2.40;1.23;;;23.30;99.90;;;;;;5067831;28;20190;-74
2022/05/26 08:26:52;;;;;;;3.25;1.30;;;23.40;99.90;;;;;;5065270;28;20206;-74
2022/05/26 08:29:19;;;;;;;1.83;1.45;;;23.50;99.90;;;;;;5060479;28;20198;-74
2022/05/26 08:31:46;;;;;;;1.33;1.20;;;23.70;99.90;;;;;;5066303;28;20202;-74
2022/05/26 08:34:13;;;;;;;1.42;1.30;;;23.60;99.90;;;;;;5068958;28;20214;-74
2022/05/26 08:36:40;;;;;;;1.10;1.10;;;23.70;99.90;;;;;;5088116;28;20577;-74
2022/05/26 08:39:08;;;;;;;1.30;1.20;;;23.90;99.90;;;;;;5087877;28;20194;-74
2022/05/26 08:41:38;;;;;;;1.48;1.38;;;24.10;99.90;;;;;;5089650;28;20267;-74
2022/05/26 08:44:11;;;;;;;1.75;1.35;;;24.10;99.90;;;;;;5086129;28;20685;-74
2022/05/26 08:46:45;;;;;;;1.40;1.20;;;24.10;99.90;;;;;;5103520;28;20240;-75
2022/05/26 08:49:17;;;;;;;1.65;1.17;;;24.00;99.90;;;;;;5086697;28;20204;-74
2022/05/26 08:51:49;;;;;;;2.78;1.27;;;24.00;99.90;;;;;;5087164;28;20595;-74
2022/05/26 08:54:24;;;;;;;1.27;1.17;;;23.90;99.90;;;;;;5087353;28;20804;-75
2022/05/26 08:56:55;;;;;;;1.23;1.13;;;23.90;99.90;;;;;;5087777;28;20687;-75
2022/05/26 08:59:27;;;;;;;1.77;1.13;;;23.70;99.90;;;;;;5086252;28;20568;-75
2022/05/26 09:01:57;;;;;;;1.33;1.23;;;23.70;99.90;;;;;;5069327;28;20222;-75
2022/05/26 09:04:24;;;;;;;1.15;1.02;;;23.80;99.90;;;;;;5067302;28;20199;-76
2022/05/26 09:15:13;;;;;;;1.15;1.10;;;24.30;99.90;;;;;;5075325;28;20233;-75
2022/05/26 09:17:40;;;;;;;2.15;1.35;;;24.50;99.90;;;;;;5066329;28;20194;-74
2022/05/26 09:20:32;;;;;;;2.35;1.25;;;24.60;99.90;;;;;;5070149;28;20225;-74
2022/05/26 09:23:12;;;;;;;2.17;1.40;;;24.70;99.90;;;;;;5082699;28;20228;-74
2022/05/26 09:25:44;;;;;;;1.30;1.20;;;24.70;99.90;;;;;;5078420;28;20237;-75
2022/05/26 09:28:13;;;;;;;2.05;1.33;;;24.80;99.90;;;;;;5068749;28;20195;-74
2022/05/26 09:30:41;;;;;;;1.33;1.23;;;24.80;99.90;;;;;;5074464;28;20218;-75
2022/05/26 09:33:19;;;;;;;1.30;1.15;;;24.80;99.90;;;;;;5071657;28;20261;-75
2022/05/26 09:35:47;;;;;;;1.20;1.10;;;24.70;99.90;;;;;;5073700;28;20329;-74
2022/05/26 09:38:19;;;;;;;0.90;0.90;;;24.50;99.90;;;;;;5086355;28;20229;-75
2022/05/26 09:40:48;;;;;;;1.20;1.10;;;24.40;99.90;;;;;;5086304;28;20229;-75
2022/05/26 09:43:26;;;;;;;1.27;1.17;;;24.50;99.90;;;;;;5076352;28;20679;-75
2022/05/26 09:45:56;;;;;;;0.90;0.90;;;24.70;99.90;;;;;;5075460;28;20296;-75
2022/05/26 09:48:29;;;;;;;1.00;1.00;;;24.80;99.90;;;;;;5071073;28;20592;-76
2022/05/26 09:51:09;;;;;;;1.23;1.13;;;25.00;99.90;;;;;;5077593;28;20727;-76
2022/05/26 09:53:39;;;;;;;1.80;1.10;;;25.00;99.90;;;;;;5086019;28;20217;-75
2022/05/26 09:56:07;;;;;;;2.15;1.20;;;25.20;99.90;;;;;;5084336;28;20296;-75
2022/05/26 09:58:39;;;;;;;1.10;1.00;;;25.30;99.90;;;;;;5085880;28;20289;-75
2022/05/26 10:01:14;;;;;;;1.70;1.02;;;25.30;99.90;;;;;;5085941;28;20645;-75
2022/05/26 10:03:50;;;;;;;2.15;1.10;;;25.40;99.90;;;;;;5081471;28;20236;-75
2022/05/26 10:06:26;;;;;;;1.40;0.90;;;25.60;99.90;;;;;;5081449;28;20221;-76
2022/05/26 10:09:07;;;;;;;1.05;1.05;;;25.70;99.90;;;;;;5083125;28;20719;-76
2022/05/26 10:11:48;;;;;;;1.80;1.20;;;26.00;99.90;;;;;;5087197;28;20286;-76
2022/05/26 10:14:32;;;;;;;1.25;1.15;;;25.90;99.90;;;;;;5085707;28;20217;-76
2022/05/26 10:17:07;;;;;;;0.90;0.90;;;26.00;99.90;;;;;;5081132;28;20209;-76
2022/05/26 10:19:51;;;;;;;1.33;1.05;;;25.90;99.90;;;;;;5079638;28;20193;-76
2022/05/26 10:22:29;;;;;;;0.85;0.85;;;26.10;99.90;;;;;;5086086;28;20217;-77
2022/05/26 10:25:15;;;;;;;1.27;1.17;;;26.00;99.90;;;;;;5078783;28;20191;-76
2022/05/26 10:27:54;;;;;;;1.20;1.10;;;26.00;99.90;;;;;;5084224;28;20193;-76
2022/05/26 10:30:28;;;;;;;1.02;1.02;;;25.90;99.90;;;;;;5080861;28;20569;-76
2022/05/26 10:33:22;;;;;;;1.88;0.90;;;26.00;99.90;;;;;;5086747;28;20192;-76
2022/05/26 10:35:56;;;;;;;1.40;1.27;;;26.20;99.90;;;;;;5083614;28;20225;-76
2022/05/26 10:38:41;;;;;;;1.25;1.13;;;26.40;99.90;;;;;;5084152;28;20187;-76
2022/05/26 10:41:21;;;;;;;1.40;1.30;;;26.50;99.90;;;;;;5076794;28;20896;-77
2022/05/26 10:43:52;;;;;;;1.40;1.20;;;26.50;99.90;;;;;;5064694;28;20281;-78
2022/05/26 10:46:24;;;;;;;1.95;1.20;;;26.70;99.90;;;;;;5077118;28;20231;-77
2022/05/26 10:48:58;;;;;;;2.25;1.02;;;26.70;99.90;;;;;;5081972;28;20194;-77
2022/05/26 10:51:31;;;;;;;1.92;1.17;;;26.70;99.90;;;;;;5073544;28;20279;-76
2022/05/26 10:54:04;;;;;;;2.45;1.30;;;26.70;99.90;;;;;;5070438;28;20437;-77
2022/05/26 10:56:36;;;;;;;1.35;1.25;;;27.00;99.90;;;;;;5072446;28;20221;-79
2022/05/26 10:59:08;;;;;;;1.48;1.00;;;26.90;99.90;;;;;;5078039;28;20226;-77
2022/05/26 11:01:41;;;;;;;2.20;1.30;;;26.70;99.90;;;;;;5074527;28;20624;-78
2022/05/26 11:04:16;;;;;;;1.33;1.15;;;26.70;99.90;;;;;;5078090;28;20242;-77
2022/05/26 11:06:46;;;;;;;2.15;1.40;;;26.70;99.90;;;;;;5067941;28;20217;-78
2022/05/26 11:09:18;;;;;;;1.23;1.10;;;26.80;99.90;;;;;;5072877;28;20252;-78
2022/05/26 11:11:49;;;;;;;0.98;0.98;;;27.00;99.90;;;;;;5069665;28;20276;-80
2022/05/26 11:17:26;;;;;;;1.10;1.00;;;26.90;99.90;;;;;;5079541;28;20236;-79
2022/05/26 11:19:59;;;;;;;1.50;1.10;;;26.90;99.90;;;;;;5082134;28;20225;-78
2022/05/26 11:22:26;;;;;;;1.40;1.30;;;27.00;99.90;;;;;;5065813;28;20278;-78
2022/05/26 11:24:57;;;;;;;1.20;1.10;;;26.80;99.90;;;;;;5063631;28;20198;-79
2022/05/26 11:27:29;;;;;;;1.35;1.25;;;26.90;99.90;;;;;;5064762;28;20218;-77
2022/05/26 11:29:59;;;;;;;1.17;1.17;;;27.00;99.90;;;;;;5058166;28;20272;-81
2022/05/26 11:38:07;;;;;;;1.30;1.20;;;27.50;99.90;;;;;;5078545;28;20201;-78
2022/05/26 11:40:42;;;;;;;2.70;1.30;;;27.60;99.90;;;;;;5081038;28;20222;-78
2022/05/26 11:43:10;;;;;;;1.33;1.23;;;27.80;99.90;;;;;;5063901;28;20246;-80
2022/05/26 11:45:49;;;;;;;1.38;1.20;;;27.90;99.90;;;;;;5072651;28;20291;-80
2022/05/26 11:48:46;;;;;;;1.20;1.10;;;27.90;99.90;;;;;;5072271;28;20241;-80
2022/05/26 11:51:39;;;;;;;1.88;1.40;;;28.00;99.90;;;;;;5064727;28;20321;-79
2022/05/26 11:54:07;;;;;;;2.70;1.48;;;28.30;99.90;;;;;;5067330;28;20214;-79
2022/05/26 11:56:48;;;;;;;1.58;1.45;;;28.30;99.90;;;;;;5077881;28;20220;-79
2022/05/26 11:59:41;;;;;;;1.45;1.35;;;28.40;99.90;;;;;;5082094;28;20208;-80
2022/05/26 12:02:30;;;;;;;1.58;1.48;;;28.50;99.90;;;;;;5085372;28;20245;-81
2022/05/26 12:05:37;;;;;;;2.50;1.70;;;28.60;99.90;;;;;;5084223;28;20276;-79
2022/05/26 12:08:23;;;;;;;1.70;1.60;;;28.60;99.90;;;;;;5067573;28;20213;-78
2022/05/26 12:10:54;;;;;;;2.00;1.48;;;28.70;99.90;;;;;;5092472;28;20253;-79
2022/05/26 12:13:33;;;;;;;3.08;1.63;;;28.40;99.90;;;;;;5083282;28;20222;-79
2022/05/26 12:16:33;;;;;;;1.98;1.88;;;27.90;99.90;;;;;;5069371;28;20294;-79
2022/05/26 12:19:02;;;;;;;3.40;1.85;;;27.60;99.90;;;;;;5073587;28;20218;-78
2022/05/26 12:21:41;;;;;;;3.00;2.13;;;27.20;99.90;;;;;;5091550;28;20224;-79
2022/05/26 12:24:51;;;;;;;3.53;2.03;;;27.10;99.90;;;;;;5075942;28;20289;-78
2022/05/26 12:27:54;;;;;;;2.90;2.10;;;27.00;99.90;;;;;;5070120;28;20281;-78
2022/05/26 12:31:14;;;;;;;5.90;2.10;;;26.90;99.90;;;;;;5087371;28;20213;-79
2022/05/26 12:34:02;;;;;;;2.28;2.00;;;26.80;99.90;;;;;;5089341;28;20222;-79
2022/05/26 12:36:43;;;;;;;5.85;2.20;;;26.90;99.90;;;;;;5087882;28;20189;-78
2022/05/26 12:39:39;;;;;;;5.25;2.50;;;26.90;99.90;;;;;;5087315;28;20481;-79
2022/05/26 12:42:18;;;;;;;4.82;2.00;;;27.10;99.90;;;;;;5072354;28;20560;-79
2022/05/26 12:45:26;;;;;;;3.97;2.30;;;26.90;99.90;;;;;;5090069;28;20571;-78
2022/05/26 12:48:29;;;;;;;3.72;2.30;;;26.60;99.90;;;;;;5046422;28;20203;-77
2022/05/26 12:51:02;;;;;;;4.20;2.35;;;26.40;99.90;;;;;;5067812;28;20229;-77
2022/05/26 12:53:34;;;;;;;4.68;2.75;;;26.20;99.90;;;;;;5087210;28;20202;-76
2022/05/26 12:56:07;;;;;;;3.60;2.35;;;26.00;99.90;;;;;;5082434;28;20225;-76
2022/05/26 12:58:39;;;;;;;7.35;2.67;;;26.00;99.90;;;;;;5088507;28;20190;-78
2022/05/26 13:01:11;;;;;;;3.47;2.35;;;25.90;99.90;;;;;;5086546;28;20270;-76
2022/05/26 13:03:41;;;;;;;4.40;2.17;;;26.20;99.90;;;;;;5086194;28;20202;-75
2022/05/26 13:06:10;;;;;;;3.88;2.33;;;26.40;99.90;;;;;;5084650;28;20277;-77
2022/05/26 13:08:47;;;;;;;3.55;2.55;;;26.40;99.90;;;;;;5086409;28;20201;-77
2022/05/26 13:11:17;;;;;;;6.47;2.90;;;26.60;99.90;;;;;;5083897;28;20229;-78
2022/05/26 13:13:48;;;;;;;3.47;2.80;;;26.50;99.90;;;;;;5089839;28;20201;-80
2022/05/26 13:16:27;;;;;;;5.63;3.15;;;26.30;99.90;;;;;;5090703;28;20345;-77
2022/05/26 13:18:55;;;;;;;6.10;3.13;;;26.10;99.90;;;;;;5086968;28;20212;-77
2022/05/26 13:21:24;;;;;;;4.18;2.97;;;25.80;99.90;;;;;;5080709;28;20708;-79
2022/05/26 13:23:53;;;;;;;10.45;3.50;;;25.70;99.90;;;;;;5068658;28;20201;-77
2022/05/26 13:26:21;;;;;;;9.77;3.75;;;25.50;99.90;;;;;;5074783;28;20229;-76
2022/05/26 13:28:51;;;;;;;5.80;3.00;;;25.40;99.90;;;;;;5067856;28;20722;-77
2022/05/26 13:34:07;;;;;;;3.70;3.05;;;25.40;99.90;;;;;;5069499;28;20201;-77
2022/05/26 13:36:36;;;;;;;7.93;3.50;;;25.40;99.90;;;;;;5065001;28;20222;-77
2022/05/26 13:39:11;;;;;;;5.78;3.60;;;25.40;99.90;;;;;;5068151;28;20251;-77
2022/05/26 13:41:40;;;;;;;5.25;3.40;;;25.50;99.90;;;;;;5062540;28;20222;-77
2022/05/26 13:44:09;;;;;;;5.13;3.55;;;25.70;99.90;;;;;;5068618;28;20683;-77
2022/05/26 13:46:40;;;;;;;6.78;3.65;;;26.00;99.90;;;;;;5073595;28;20472;-77
2022/05/26 13:49:24;;;;;;;10.10;4.05;;;26.40;99.90;;;;;;5086695;28;20193;-77
2022/05/26 13:51:53;;;;;;;9.70;4.78;;;26.40;99.90;;;;;;5074263;28;20659;-77
2022/05/26 13:54:32;;;;;;;10.73;4.30;;;26.20;99.90;;;;;;5063867;28;20219;-77